Hygiene, CO (80533)

5:00 PM MST on January 27, 2015 (GMT -0700)
APRSWXNET Boulder CO US | Change Station
CLOSE
Current Station
Personal Weather Station
Location: Hygiene, CO
Elevation: 5279 ft
Nearby Weather Stations

Elev 5279 ft 40.19 °N, 105.16 °W | Updated 28 minutes ago

Clear
Clear
66 °F
Feels Like 66 °F
N
1
Wind Variable Wind from WSW
Gusts 4.0 mph

Today
High -- | Low -- °F
--% Chance of Precip.
Yesterday
High -- | Low -- °F
Precip. -- in
7:14 AM 5:13 PM
First Quarter, 59% visible
Pressure 30.04 in
Visibility 10.0 miles
Clouds Clear
Dew Point 27 °F
Humidity 23%
Rainfall 0.00 in
Snow Depth Not available.
UV 0 out of 12
Pollen 2.70 out of 12
Air Quality Not available.
Flu Activity Not available.
METAR KLMO 272355Z AUTO 34003KT 10SM CLR 17/M04 A3004 RMK AO2 T01711045

More Conditions Fewer Conditions

Pressure 30.04 in
Visibility 10.0 miles
Clouds Clear
Dew Point 27 °F
Humidity 23%
Rainfall 0.00 in
Snow Depth Not available.
UV 0 out of 12
Pollen 2.70 out of 12
Air Quality Not available.
Flu Activity Not available.
METAR KLMO 272355Z AUTO 34003KT 10SM CLR 17/M04 A3004 RMK AO2 T01711045

More Conditions Fewer Conditions

10-Day Weather Forecast

Almanac

Astronomy

Jan. 27, 2015 Rise Set
Actual Time
Civil Twilight
Nautical Twilight
Astronomical Twilight
Moon
Length of Visible Light
Length of Day
Tomorrow will be .
, % of the Moon is Illuminated

Today's Extremes

State Highs State Lows

Community

WunderPhotos

Upload Photos

1,790,986 photos uploaded!

WunderBlogs® & News

Nearby

Air Quality

  Air Quality AQ Index Pollutant
Not available.

Snow Depth

Station Depth Elevation

Earthquake Activity

City Distance Mag. Time & Date
Minimum magnitude displayed is 2.5.

Coastal Water Temperatures

Place Temperature

Nearby Weather Stations